Time;durP1;ratioP1;P1;durP2;ratioP2;P2;SDS_P1;SDS_P2;PMS_P1;PMS_P2;Temp;Humidity;BMP_temperature;BMP_pressure;BME280_temperature;BME280_humidity;BME280_pressure;Samples;Min_cycle;Max_cycle;Signal;HPM_P1;HPM_P2
2022/01/13 00:02:39;;;;;;;1.93;1.40;;;;;;;;;;21030743;28;20196;-72
2022/01/13 00:12:43;;;;;;;1.00;0.93;;;;;;;;;;21071795;28;20239;-72
2022/01/13 00:23:37;;;;;;;2.10;1.40;;;;;;;;;;21044394;22;20226;-69
2022/01/13 00:33:10;;;;;;;1.67;1.47;;;;;;;;;;20908911;28;20217;-69
2022/01/13 00:43:11;;;;;;;1.50;1.10;;;;;;;;;;20886976;28;20209;-69
2022/01/13 00:53:13;;;;;;;1.33;1.07;;;;;;;;;;20855695;28;20217;-69
2022/01/13 01:03:16;;;;;;;1.93;1.30;;;;;;;;;;20888064;28;20244;-69
2022/01/13 01:13:21;;;;;;;1.67;1.57;;;0.70;99.90;;;;;;20866275;28;20225;-69
2022/01/13 01:23:25;;;;;;;2.87;1.03;;;;;;;;;;20884557;28;20742;-69
2022/01/13 01:33:28;;;;;;;1.43;1.33;;;;;;;;;;20903059;28;20217;-69
2022/01/13 01:43:30;;;;;;;1.50;1.20;;;;;;;;;;20869447;28;20277;-69
2022/01/13 01:53:32;;;;;;;1.60;1.10;;;0.70;99.90;;;;;;20868582;28;20833;-68
2022/01/13 02:03:33;;;;;;;1.63;1.13;;;;;;;;;;20867884;28;20786;-68
2022/01/13 02:13:36;;;;;;;1.60;1.13;;;;;;;;;;20883504;28;20593;-68
2022/01/13 02:23:39;;;;;;;1.27;1.07;;;0.40;99.90;;;;;;20908862;28;20221;-69
2022/01/13 02:33:41;;;;;;;2.50;1.87;;;;;;;;;;20975680;28;20267;-68
2022/01/13 02:43:44;;;;;;;1.97;1.23;;;0.60;99.90;;;;;;20955466;28;20757;-69
2022/01/13 02:53:46;;;;;;;1.40;1.30;;;0.50;99.90;;;;;;20946040;28;20221;-69
2022/01/13 03:03:48;;;;;;;1.40;1.30;;;;;;;;;;20962244;28;20209;-69
2022/01/13 03:13:50;;;;;;;1.53;1.43;;;;;;;;;;20961392;28;20221;-68
2022/01/13 03:23:52;;;;;;;1.07;0.90;;;;;;;;;;20890149;28;20589;-69
2022/01/13 03:33:54;;;;;;;1.30;1.00;;;;;;;;;;20861239;28;20248;-68
2022/01/13 03:43:57;;;;;;;2.07;1.23;;;;;;;;;;20891709;28;20259;-69
2022/01/13 03:53:59;;;;;;;1.83;1.43;;;;;;;;;;20875878;28;20217;-68
2022/01/13 04:04:01;;;;;;;2.03;1.60;;;;;;;;;;20874799;28;20202;-69
2022/01/13 04:14:05;;;;;;;1.83;1.40;;;0.40;99.90;;;;;;20947575;28;20266;-69
2022/01/13 04:24:11;;;;;;;3.00;1.73;;;0.50;99.90;;;;;;20988815;28;20224;-68
2022/01/13 04:34:13;;;;;;;5.10;1.97;;;;;;;;;;20972472;28;20229;-69
2022/01/13 04:44:19;;;;;;;1.80;1.50;;;;;;;;;;20938687;28;20676;-69
2022/01/13 04:54:21;;;;;;;3.00;1.80;;;;;;;;;;20938544;28;20217;-69
2022/01/13 05:04:22;;;;;;;1.30;1.20;;;;;;;;;;20954214;28;20680;-69
2022/01/13 05:14:25;;;;;;;2.27;1.80;;;;;;;;;;20937648;28;20239;-69
2022/01/13 05:24:27;;;;;;;2.17;1.73;;;;;;;;;;20953086;28;20217;-69
2022/01/13 05:34:30;;;;;;;2.40;1.80;;;;;;;;;;20886470;28;20229;-68
2022/01/13 05:44:38;;;;;;;2.30;1.90;;;;;;;;;;20870001;28;20276;-69
2022/01/13 05:54:40;;;;;;;2.37;1.93;;;0.40;99.90;;;;;;20869435;28;20273;-69
2022/01/13 06:04:43;;;;;;;1.97;1.67;;;0.20;99.90;;;;;;20907230;28;20213;-69
2022/01/13 06:14:46;;;;;;;2.30;1.77;;;;;;;;;;20964414;28;20221;-69
2022/01/13 06:24:49;;;;;;;3.83;2.50;;;;;;;;;;20972478;28;20700;-69
2022/01/13 06:34:52;;;;;;;2.40;1.77;;;0.20;99.90;;;;;;20947625;28;20252;-69
2022/01/13 06:44:54;;;;;;;1.83;1.63;;;;;;;;;;20980181;28;20571;-69
2022/01/13 06:54:56;;;;;;;2.30;1.53;;;;;;;;;;20946585;28;20225;-69
2022/01/13 07:04:59;;;;;;;4.90;4.37;;;;;;;;;;20962058;28;20229;-69
2022/01/13 07:15:00;;;;;;;3.43;2.80;;;;;;;;;;20977621;28;20229;-69
2022/01/13 07:25:03;;;;;;;3.83;2.33;;;0.60;99.90;;;;;;20946931;28;20233;-69
2022/01/13 07:35:07;;;;;;;3.10;2.20;;;0.10;99.90;;;;;;20881306;28;20583;-69
2022/01/13 07:45:10;;;;;;;2.70;2.00;;;0.20;99.90;;;;;;20882274;28;20213;-69
2022/01/13 07:55:12;;;;;;;2.70;1.77;;;;;;;;;;20878960;28;20226;-69
2022/01/13 08:05:15;;;;;;;2.90;1.87;;;;;;;;;;20906373;28;20234;-69
2022/01/13 08:15:16;;;;;;;1.53;1.33;;;;;;;;;;20890475;28;20210;-70
2022/01/13 08:25:19;;;;;;;3.37;2.17;;;;;;;;;;20915243;28;20241;-70
2022/01/13 08:35:21;;;;;;;1.93;1.57;;;;;;;;;;20875534;28;20271;-69
2022/01/13 08:45:22;;;;;;;2.17;1.77;;;;;;;;;;20883988;28;20214;-70
2022/01/13 08:55:25;;;;;;;2.03;1.83;;;;;;;;;;20871003;28;20218;-70
2022/01/13 09:05:26;;;;;;;2.40;2.20;;;;;;;;;;20804458;28;20215;-70
2022/01/13 09:15:37;;;;;;;4.37;2.53;;;;;;;;;;20820773;28;20792;-70
2022/01/13 09:25:39;;;;;;;2.97;2.20;;;;;;;;;;20803768;28;20299;-70
2022/01/13 09:35:42;;;;;;;3.93;2.70;;;;;;;;;;20872364;28;20222;-69
2022/01/13 09:45:44;;;;;;;3.80;2.60;;;;;;;;;;20924807;28;20271;-69
2022/01/13 09:55:46;;;;;;;3.83;3.07;;;;;;;;;;20874346;28;20218;-69
2022/01/13 10:05:54;;;;;;;4.37;2.73;;;;;;;;;;20932246;28;20593;-69
2022/01/13 10:26:17;;;;;;;3.13;2.63;;;;;;;;;;20925508;28;20241;-69
2022/01/13 10:36:19;;;;;;;2.93;2.30;;;;;;;;;;20928854;28;20245;-70
2022/01/13 10:46:22;;;;;;;3.40;2.57;;;;;;;;;;20941878;28;20310;-70
2022/01/13 10:56:24;;;;;;;3.17;2.70;;;;;;;;;;20925104;28;20268;-71
2022/01/13 11:06:28;;;;;;;5.90;4.20;;;;;;;;;;20908553;28;20293;-70
2022/01/13 11:16:30;;;;;;;5.83;3.93;;;;;;;;;;20874486;28;20240;-70
2022/01/13 11:26:34;;;;;;;7.43;5.17;;;;;;;;;;20872216;28;20307;-70
2022/01/13 11:36:37;;;;;;;5.77;5.17;;;;;;;;;;20860336;28;20221;-70
2022/01/13 11:46:45;;;;;;;8.53;5.27;;;;;;;;;;20858951;28;20267;-70
2022/01/13 11:57:06;;;;;;;9.43;6.10;;;;;;;;;;20890511;28;20287;-70
2022/01/13 12:07:39;;;;;;;12.37;5.73;;;2.10;99.90;;;;;;20889544;28;20209;-70
2022/01/13 12:18:03;;;;;;;7.07;4.77;;;2.40;99.90;;;;;;20856758;28;20284;-70
2022/01/13 12:28:18;;;;;;;6.63;4.90;;;2.70;99.90;;;;;;20892714;22;20226;-73
2022/01/13 12:38:22;;;;;;;7.37;5.60;;;2.90;99.90;;;;;;20880974;28;20268;-73
2022/01/13 12:48:28;;;;;;;11.13;7.23;;;;;;;;;;20886815;28;20733;-73
2022/01/13 12:58:34;;;;;;;8.00;5.03;;;3.00;99.90;;;;;;20903319;28;20294;-73
2022/01/13 13:08:36;;;;;;;6.57;4.50;;;;;;;;;;20902442;28;20222;-73
2022/01/13 13:18:39;;;;;;;6.63;4.57;;;;;;;;;;20907969;28;20227;-72
2022/01/13 13:28:40;;;;;;;9.40;6.33;;;;;;;;;;20853461;28;20758;-73
2022/01/13 13:38:47;;;;;;;6.70;4.30;;;;;;;;;;20821273;28;20693;-72
2022/01/13 13:48:49;;;;;;;8.10;5.53;;;2.80;99.90;;;;;;20876096;28;20236;-72
2022/01/13 13:58:51;;;;;;;8.40;5.33;;;;;;;;;;20899871;28;20218;-72
2022/01/13 14:08:56;;;;;;;8.03;4.87;;;;;;;;;;20917510;28;20210;-72
2022/01/13 14:19:09;;;;;;;7.23;5.50;;;2.90;99.90;;;;;;20915845;28;20638;-72
2022/01/13 14:29:20;;;;;;;9.63;5.20;;;;;;;;;;20922893;28;20229;-72
2022/01/13 14:39:22;;;;;;;7.63;4.90;;;;;;;;;;20863850;28;20716;-72
2022/01/13 14:49:28;;;;;;;9.20;5.33;;;;;;;;;;20829928;28;20226;-72
2022/01/13 14:59:30;;;;;;;5.63;3.70;;;;;;;;;;20829084;28;20288;-72
2022/01/13 15:09:31;;;;;;;7.07;4.97;;;;;;;;;;20829884;28;20605;-72
2022/01/13 15:19:33;;;;;;;6.07;4.53;;;;;;;;;;20843991;28;20470;-72
2022/01/13 15:29:35;;;;;;;6.43;4.20;;;;;;;;;;20881527;28;20242;-72
2022/01/13 15:39:37;;;;;;;6.53;3.87;;;;;;;;;;20798661;28;20206;-72
2022/01/13 15:49:39;;;;;;;5.10;3.63;;;;;;;;;;20817087;28;20743;-72
2022/01/13 15:59:42;;;;;;;6.50;4.57;;;;;;;;;;20825628;28;20602;-73
2022/01/13 16:09:43;;;;;;;6.47;4.47;;;;;;;;;;20824701;28;20211;-72
2022/01/13 16:19:45;;;;;;;7.77;5.03;;;;;;;;;;20825019;28;20277;-72
2022/01/13 16:29:59;;;;;;;5.67;3.87;;;1.80;99.90;;;;;;20839051;28;20217;-72
2022/01/13 16:40:01;;;;;;;9.30;3.47;;;;;;;;;;20822175;28;20237;-72
2022/01/13 16:50:05;;;;;;;5.23;4.00;;;;;;;;;;20803806;28;20580;-72
2022/01/13 17:00:10;;;;;;;5.57;4.03;;;1.80;99.90;;;;;;20821299;28;20222;-72
2022/01/13 17:10:12;;;;;;;4.73;3.97;;;1.70;99.90;;;;;;20812140;28;20856;-72
2022/01/13 17:20:14;;;;;;;4.70;3.53;;;;;;;;;;20811060;28;20237;-72
2022/01/13 17:30:17;;;;;;;4.83;3.00;;;;;;;;;;20818646;28;20279;-72
2022/01/13 17:40:19;;;;;;;5.37;4.27;;;;;;;;;;20884278;28;20252;-72
2022/01/13 17:50:21;;;;;;;4.97;3.93;;;;;;;;;;20872834;28;20218;-72
2022/01/13 18:00:22;;;;;;;6.10;4.07;;;;;;;;;;20824492;28;20264;-71
2022/01/13 18:10:24;;;;;;;6.67;4.73;;;;;;;;;;20823667;28;20233;-71
2022/01/13 18:20:26;;;;;;;8.23;4.67;;;;;;;;;;20890989;28;20217;-71
2022/01/13 18:30:28;;;;;;;6.27;4.27;;;;;;;;;;20912266;28;20229;-71
2022/01/13 18:40:30;;;;;;;7.50;4.43;;;;;;;;;;20852388;28;20205;-71
2022/01/13 18:50:40;;;;;;;5.47;4.07;;;;;;;;;;20897629;28;20688;-71
2022/01/13 19:00:41;;;;;;;5.50;3.87;;;;;;;;;;20893204;28;20482;-71
2022/01/13 19:10:43;;;;;;;5.83;4.00;;;;;;;;;;20852740;28;20233;-71
2022/01/13 19:20:45;;;;;;;5.60;4.40;;;;;;;;;;20811763;28;20202;-71
2022/01/13 19:30:47;;;;;;;8.73;3.63;;;;;;;;;;20809867;28;20279;-71
2022/01/13 19:40:51;;;;;;;5.10;4.07;;;;;;;;;;20808825;28;20597;-71
2022/01/13 19:50:53;;;;;;;13.03;4.07;;;;;;;;;;20789172;28;20276;-71
2022/01/13 20:00:55;;;;;;;4.17;3.60;;;;;;;;;;20886652;23;20226;-67
2022/01/13 20:10:58;;;;;;;6.00;3.90;;;1.20;99.90;;;;;;20878881;28;20229;-67
2022/01/13 20:21:00;;;;;;;4.77;3.67;;;1.10;99.90;;;;;;20888844;28;20280;-67
2022/01/13 20:31:02;;;;;;;4.93;3.37;;;;;;;;;;20873896;28;20383;-68
2022/01/13 20:41:04;;;;;;;4.00;3.07;;;;;;;;;;20886262;28;20267;-67
2022/01/13 20:51:07;;;;;;;4.20;2.73;;;;;;;;;;20903198;28;20229;-67
2022/01/13 21:01:10;;;;;;;3.33;2.73;;;;;;;;;;20904245;28;20316;-67
2022/01/13 21:11:14;;;;;;;3.80;3.17;;;;;;;;;;20904279;28;20225;-67
2022/01/13 21:21:16;;;;;;;4.10;3.07;;;;;;;;;;20870890;28;20772;-67
2022/01/13 21:31:18;;;;;;;4.37;3.07;;;;;;;;;;20918922;28;20287;-67
2022/01/13 21:41:23;;;;;;;3.13;2.63;;;;;;;;;;20902590;28;20267;-67
2022/01/13 21:51:26;;;;;;;4.77;2.50;;;1.00;99.90;;;;;;20917605;28;20323;-67
2022/01/13 22:01:28;;;;;;;3.00;2.33;;;;;;;;;;20887180;28;20560;-67
2022/01/13 22:11:30;;;;;;;2.60;1.67;;;;;;;;;;20884530;28;20267;-67
2022/01/13 22:21:32;;;;;;;1.87;1.40;;;;;;;;;;20900079;28;20202;-67
2022/01/13 22:31:34;;;;;;;2.63;2.07;;;;;;;;;;20898807;28;20241;-67
2022/01/13 22:41:36;;;;;;;1.80;1.50;;;0.80;99.90;;;;;;20943234;28;20243;-67
2022/01/13 22:51:39;;;;;;;2.73;1.97;;;;;;;;;;20980242;28;20221;-67
2022/01/13 23:01:41;;;;;;;1.97;1.50;;;;;;;;;;21013304;28;20233;-67
2022/01/13 23:11:43;;;;;;;10.80;2.10;;;;;;;;;;20995048;28;20229;-67
2022/01/13 23:32:06;;;;;;;1.80;1.70;;;0.60;99.90;;;;;;20985014;28;20216;-67
2022/01/13 23:42:09;;;;;;;3.73;2.73;;;;;;;;;;20966824;28;20229;-67
2022/01/13 23:52:15;;;;;;;2.20;1.73;;;0.60;99.90;;;;;;20992554;28;20213;-67
